createdAt,value
2023-05-04T00:00:25.155Z,3.00
2023-05-04T00:02:54.547Z,3.00
2023-05-04T00:05:26.447Z,2.70
2023-05-04T00:07:57.527Z,2.50
2023-05-04T00:10:30.367Z,2.60
2023-05-04T00:13:00.698Z,2.70
2023-05-04T00:15:32.563Z,2.60
2023-05-04T00:18:01.526Z,2.60
2023-05-04T00:20:31.120Z,2.30
2023-05-04T00:23:01.872Z,2.40
2023-05-04T00:25:31.685Z,2.50
2023-05-04T00:28:01.039Z,2.40
2023-05-04T00:30:30.085Z,2.20
2023-05-04T00:32:59.777Z,2.20
2023-05-04T00:35:30.226Z,2.40
2023-05-04T00:38:00.721Z,2.40
2023-05-04T00:40:30.145Z,2.30
2023-05-04T00:42:59.841Z,2.00
2023-05-04T00:45:29.670Z,2.20
2023-05-04T00:47:59.508Z,2.30
2023-05-04T00:50:29.213Z,2.40
2023-05-04T00:53:05.539Z,2.30
2023-05-04T00:55:35.120Z,2.30
2023-05-04T00:58:06.362Z,2.00
2023-05-04T01:00:35.740Z,2.30
2023-05-04T01:03:05.805Z,2.50
2023-05-04T01:05:45.189Z,2.10
2023-05-04T01:08:20.216Z,1.90
2023-05-04T01:10:56.102Z,2.20
2023-05-04T01:13:26.454Z,2.30
2023-05-04T01:15:58.647Z,2.20
2023-05-04T01:18:27.872Z,2.20
2023-05-04T01:20:56.457Z,1.90
2023-05-04T01:23:27.777Z,1.70
2023-05-04T01:26:04.550Z,1.70
2023-05-04T01:28:41.448Z,1.90
2023-05-04T01:31:14.439Z,2.50
2023-05-04T01:33:46.307Z,1.80
2023-05-04T01:36:15.718Z,1.70
2023-05-04T01:38:45.655Z,2.00
2023-05-04T01:41:14.255Z,1.90
2023-05-04T01:43:45.794Z,1.80
2023-05-04T01:46:15.137Z,2.50
2023-05-04T01:48:44.128Z,2.20
2023-05-04T01:51:13.137Z,1.80
2023-05-04T01:53:42.515Z,2.00
2023-05-04T01:56:13.713Z,2.10
2023-05-04T01:58:42.962Z,1.80
2023-05-04T02:01:11.996Z,2.30
2023-05-04T02:03:43.673Z,1.70
2023-05-04T02:06:13.337Z,1.40
2023-05-04T02:08:43.593Z,1.20
2023-05-04T02:11:14.973Z,1.90
2023-05-04T02:13:46.330Z,1.50
2023-05-04T02:16:15.923Z,2.10
2023-05-04T02:18:47.118Z,2.20
2023-05-04T02:21:17.784Z,1.20
2023-05-04T02:23:46.937Z,1.10
2023-05-04T02:26:17.912Z,1.10
2023-05-04T02:28:47.828Z,1.50
2023-05-04T02:31:17.084Z,1.50
2023-05-04T02:33:46.093Z,1.40
2023-05-04T02:36:32.028Z,1.60
2023-05-04T02:39:01.606Z,0.90
2023-05-04T02:41:32.095Z,1.50
2023-05-04T02:44:01.355Z,1.30
2023-05-04T02:46:31.811Z,1.40
2023-05-04T02:49:05.499Z,1.20
2023-05-04T02:51:34.624Z,1.00
2023-05-04T02:54:03.805Z,0.80
2023-05-04T02:56:34.496Z,1.60
2023-05-04T02:59:03.655Z,1.00
2023-05-04T03:01:34.821Z,1.00
2023-05-04T03:04:04.266Z,1.00
2023-05-04T03:06:33.214Z,0.80
2023-05-04T03:09:02.720Z,1.40
2023-05-04T03:11:32.063Z,0.60
2023-05-04T03:14:02.760Z,1.00
2023-05-04T03:16:31.942Z,1.10
2023-05-04T03:19:01.538Z,2.00
2023-05-04T03:21:34.415Z,1.70
2023-05-04T03:24:03.909Z,0.50
2023-05-04T03:26:33.675Z,0.50
2023-05-04T03:29:03.831Z,0.70
2023-05-04T03:31:33.152Z,0.90
2023-05-04T03:34:02.793Z,0.90
2023-05-04T03:36:31.922Z,0.80
2023-05-04T03:39:01.152Z,1.00
2023-05-04T03:41:30.028Z,1.00
2023-05-04T03:43:59.712Z,0.80
2023-05-04T03:46:30.508Z,1.00
2023-05-04T03:48:59.968Z,1.20
2023-05-04T03:51:29.766Z,1.10
2023-05-04T03:53:58.521Z,1.30
2023-05-04T03:56:27.921Z,0.80
2023-05-04T03:58:57.618Z,0.80
2023-05-04T04:01:33.465Z,2.30
2023-05-04T04:04:03.054Z,1.20
2023-05-04T04:06:34.493Z,1.10
2023-05-04T04:09:03.775Z,1.10
2023-05-04T04:11:33.945Z,1.10
2023-05-04T04:14:02.794Z,1.20
2023-05-04T04:16:33.482Z,1.40
2023-05-04T04:19:02.894Z,2.20
2023-05-04T04:21:33.960Z,1.40
2023-05-04T04:24:03.543Z,1.50
2023-05-04T04:26:32.724Z,1.60
2023-05-04T04:29:08.009Z,2.20
2023-05-04T04:31:40.748Z,2.20
2023-05-04T04:34:09.920Z,2.80
2023-05-04T04:36:39.920Z,2.40
2023-05-04T04:39:09.750Z,2.50
2023-05-04T04:41:38.665Z,3.20
2023-05-04T04:44:08.488Z,2.70
2023-05-04T04:46:39.512Z,2.90
2023-05-04T04:49:08.856Z,3.00
2023-05-04T04:51:38.289Z,3.10
2023-05-04T04:54:07.660Z,3.20
2023-05-04T04:56:36.398Z,3.30
2023-05-04T04:59:05.367Z,3.40
2023-05-04T05:01:34.583Z,3.50
2023-05-04T05:04:05.510Z,3.70
2023-05-04T05:06:35.002Z,3.80
2023-05-04T05:09:04.120Z,4.00
2023-05-04T05:11:34.145Z,4.10
2023-05-04T05:14:05.545Z,4.30
2023-05-04T05:16:34.956Z,4.50
2023-05-04T05:19:05.980Z,4.60
2023-05-04T05:21:34.802Z,4.80
2023-05-04T05:24:06.020Z,4.90
2023-05-04T05:26:35.536Z,5.00
2023-05-04T05:29:06.289Z,5.10
2023-05-04T05:31:35.498Z,5.20
2023-05-04T05:34:06.015Z,5.30
2023-05-04T05:36:35.438Z,5.50
2023-05-04T05:39:06.180Z,5.60
2023-05-04T05:41:37.582Z,6.10
2023-05-04T05:44:06.944Z,5.90
2023-05-04T05:46:36.232Z,6.00
2023-05-04T05:49:08.093Z,6.10
2023-05-04T05:51:39.972Z,6.20
2023-05-04T05:54:09.139Z,6.40
2023-05-04T05:56:38.312Z,6.60
2023-05-04T05:59:07.584Z,6.70
2023-05-04T06:01:36.503Z,6.90
2023-05-04T06:04:07.738Z,7.00
2023-05-04T06:06:38.798Z,7.20
2023-05-04T06:09:08.108Z,7.30
2023-05-04T06:11:37.091Z,7.50
2023-05-04T06:14:06.418Z,7.60
2023-05-04T06:16:35.921Z,7.70
2023-05-04T06:19:07.055Z,7.90
2023-05-04T06:21:36.310Z,8.60
2023-05-04T06:24:05.887Z,8.10
2023-05-04T06:26:34.930Z,8.30
2023-05-04T06:29:04.836Z,8.40
2023-05-04T06:31:34.282Z,8.60
2023-05-04T06:34:04.583Z,8.80
2023-05-04T06:36:42.059Z,8.90
2023-05-04T06:39:11.202Z,9.20
2023-05-04T06:41:41.309Z,9.20
2023-05-04T06:44:10.673Z,9.20
2023-05-04T06:46:40.179Z,9.40
2023-05-04T06:49:09.545Z,9.60
2023-05-04T06:51:41.502Z,9.80
2023-05-04T06:54:10.749Z,9.90
2023-05-04T06:56:41.798Z,10.10
2023-05-04T06:59:11.422Z,10.20
2023-05-04T07:01:41.297Z,10.40
2023-05-04T07:04:12.028Z,10.60
2023-05-04T07:06:45.572Z,10.70
2023-05-04T07:09:15.544Z,10.90
2023-05-04T07:11:45.922Z,11.10
2023-05-04T07:14:19.902Z,11.30
2023-05-04T07:16:49.498Z,11.30
2023-05-04T07:19:18.403Z,11.40
2023-05-04T07:21:53.228Z,11.50
2023-05-04T07:24:22.536Z,11.70
2023-05-04T07:26:53.537Z,11.80
2023-05-04T07:29:23.336Z,11.50
2023-05-04T07:31:52.571Z,12.00
2023-05-04T07:34:30.191Z,12.20
2023-05-04T07:37:11.700Z,12.40
2023-05-04T07:39:40.984Z,12.50
2023-05-04T07:42:12.163Z,12.50
2023-05-04T07:44:42.093Z,12.70
2023-05-04T07:47:11.208Z,12.90
2023-05-04T07:49:40.619Z,13.00
2023-05-04T07:52:16.353Z,13.10
2023-05-04T07:54:46.262Z,13.20
2023-05-04T07:57:18.011Z,13.30
2023-05-04T07:59:47.288Z,13.40
2023-05-04T08:02:16.332Z,13.60
2023-05-04T08:04:45.706Z,13.90
2023-05-04T08:07:17.743Z,14.10
2023-05-04T08:09:47.091Z,14.20
2023-05-04T08:12:16.355Z,14.20
2023-05-04T08:14:49.570Z,14.40
2023-05-04T08:17:19.172Z,14.50
2023-05-04T08:19:51.997Z,14.90
2023-05-04T08:22:24.903Z,14.90
2023-05-04T08:24:54.441Z,15.20
2023-05-04T08:27:24.070Z,15.40
2023-05-04T08:29:53.646Z,15.30
2023-05-04T08:32:22.865Z,15.60
2023-05-04T08:34:53.024Z,15.80
2023-05-04T08:37:24.515Z,16.30
2023-05-04T08:39:53.976Z,16.30
2023-05-04T08:42:33.823Z,16.50
2023-05-04T08:45:03.966Z,16.50
2023-05-04T08:47:34.194Z,17.00
2023-05-04T08:50:05.238Z,17.60
2023-05-04T08:52:39.379Z,17.20
2023-05-04T08:55:13.249Z,18.00
2023-05-04T08:57:45.760Z,18.30
2023-05-04T09:00:19.462Z,18.60
2023-05-04T09:02:54.923Z,19.30
2023-05-04T09:05:36.651Z,19.20
2023-05-04T09:08:09.299Z,20.40
2023-05-04T09:10:38.441Z,22.00
2023-05-04T09:13:07.690Z,22.30
2023-05-04T09:15:36.854Z,22.10
2023-05-04T09:18:07.268Z,21.90
2023-05-04T09:20:47.063Z,21.00
2023-05-04T09:23:18.498Z,22.90
2023-05-04T09:25:52.853Z,24.10
2023-05-04T09:31:02.151Z,25.40
2023-05-04T09:33:32.382Z,26.70
2023-05-04T09:36:13.822Z,25.80
2023-05-04T09:38:45.029Z,25.20
2023-05-04T09:41:17.323Z,24.30
2023-05-04T09:43:46.659Z,24.30
2023-05-04T09:46:19.817Z,25.30
2023-05-04T09:48:54.314Z,26.10
2023-05-04T09:51:25.697Z,24.80
2023-05-04T09:53:56.302Z,28.20
2023-05-04T09:56:39.104Z,26.80
2023-05-04T09:59:12.085Z,25.20
2023-05-04T10:01:44.696Z,26.00
2023-05-04T10:04:14.732Z,26.50
2023-05-04T10:06:45.362Z,27.50
2023-05-04T10:09:16.103Z,28.20
2023-05-04T10:11:45.957Z,26.90
2023-05-04T10:14:15.459Z,26.90
2023-05-04T10:16:53.811Z,26.80
2023-05-04T10:19:47.375Z,27.70
2023-05-04T10:22:29.308Z,28.20
2023-05-04T10:25:31.417Z,28.60
2023-05-04T10:28:08.782Z,29.40
2023-05-04T10:30:42.568Z,30.40
2023-05-04T10:33:12.422Z,28.60
2023-05-04T10:35:53.777Z,28.80
2023-05-04T10:38:33.909Z,28.50
2023-05-04T10:41:16.133Z,27.90
2023-05-04T10:43:49.283Z,28.80
2023-05-04T10:46:19.263Z,27.70
2023-05-04T10:48:48.517Z,26.90
2023-05-04T10:51:21.118Z,27.50
2023-05-04T10:53:50.361Z,28.20
2023-05-04T10:56:25.505Z,27.30
2023-05-04T10:58:55.061Z,27.00
2023-05-04T11:01:24.616Z,30.20
2023-05-04T11:03:55.142Z,34.60
2023-05-04T11:06:26.718Z,32.80
2023-05-04T11:09:03.603Z,31.60
2023-05-04T11:11:38.238Z,31.80
2023-05-04T11:14:06.857Z,30.40
2023-05-04T11:16:35.705Z,30.50
2023-05-04T11:19:12.968Z,29.30
2023-05-04T11:21:42.396Z,28.30
2023-05-04T11:24:11.485Z,28.10
2023-05-04T11:26:49.444Z,31.30
2023-05-04T11:29:18.912Z,30.10
2023-05-04T11:31:56.196Z,29.90
2023-05-04T11:34:25.125Z,31.20
2023-05-04T11:36:54.895Z,29.40
2023-05-04T11:39:24.036Z,31.40
2023-05-04T11:41:55.878Z,30.80
2023-05-04T11:44:24.940Z,31.00
2023-05-04T11:46:55.240Z,30.50
2023-05-04T11:49:26.334Z,29.30
2023-05-04T11:52:07.435Z,31.20
2023-05-04T11:54:37.706Z,32.00
2023-05-04T11:57:08.207Z,34.00
2023-05-04T11:59:37.117Z,31.10
2023-05-04T12:02:06.268Z,30.70
2023-05-04T12:04:34.948Z,31.10
2023-05-04T12:07:09.733Z,30.90
2023-05-04T12:09:46.508Z,30.00
2023-05-04T12:12:19.635Z,31.00
2023-05-04T12:14:49.717Z,30.40
2023-05-04T12:17:20.623Z,30.80
2023-05-04T12:19:54.319Z,31.00
2023-05-04T12:22:30.511Z,32.40
2023-05-04T12:25:00.605Z,34.00
2023-05-04T12:27:31.719Z,31.70
2023-05-04T12:30:01.579Z,29.60
2023-05-04T12:32:30.736Z,28.80
2023-05-04T12:35:00.041Z,28.20
2023-05-04T12:37:29.122Z,27.70
2023-05-04T12:39:57.749Z,27.60
2023-05-04T12:42:26.859Z,29.40
2023-05-04T12:44:57.221Z,30.10
2023-05-04T12:47:26.710Z,30.20
2023-05-04T12:49:56.373Z,30.50
2023-05-04T12:52:25.373Z,30.50
2023-05-04T12:54:54.909Z,34.70
2023-05-04T12:57:23.623Z,32.00
2023-05-04T12:59:53.224Z,31.20
2023-05-04T13:02:23.903Z,30.90
2023-05-04T13:04:54.303Z,30.20
2023-05-04T13:07:23.329Z,29.60
2023-05-04T13:09:51.943Z,28.90
2023-05-04T13:12:21.125Z,29.30
2023-05-04T13:14:49.921Z,28.60
2023-05-04T13:17:19.470Z,27.60
2023-05-04T13:19:50.400Z,28.30
2023-05-04T13:22:20.004Z,28.30
2023-05-04T13:24:48.890Z,27.70
2023-05-04T13:27:17.985Z,28.70
2023-05-04T13:29:46.981Z,29.70
2023-05-04T13:32:16.239Z,29.20
2023-05-04T13:34:46.112Z,29.00
2023-05-04T13:37:18.700Z,30.20
2023-05-04T13:39:48.799Z,29.90
2023-05-04T13:42:18.566Z,29.90
2023-05-04T13:44:47.873Z,28.50
2023-05-04T13:47:17.967Z,28.20
2023-05-04T13:49:46.778Z,29.10
2023-05-04T13:52:17.263Z,29.90
2023-05-04T13:54:48.461Z,32.90
2023-05-04T13:57:19.078Z,34.50
2023-05-04T13:59:58.627Z,32.00
2023-05-04T14:02:39.484Z,31.60
2023-05-04T14:05:08.968Z,31.70
2023-05-04T14:07:39.620Z,31.80
2023-05-04T14:10:09.720Z,29.60
2023-05-04T14:12:38.593Z,28.00
2023-05-04T14:15:09.155Z,26.70
2023-05-04T14:17:39.798Z,26.70
2023-05-04T14:20:10.336Z,26.20
2023-05-04T14:22:41.894Z,26.80
2023-05-04T14:25:11.451Z,26.70
2023-05-04T14:27:42.030Z,26.80
2023-05-04T14:30:12.925Z,27.20
2023-05-04T14:32:42.418Z,26.70
2023-05-04T14:35:13.091Z,25.90
2023-05-04T14:37:44.766Z,26.30
2023-05-04T14:40:14.745Z,26.80
2023-05-04T14:42:46.267Z,26.90
2023-05-04T14:45:16.467Z,26.70
2023-05-04T14:47:45.714Z,26.60
2023-05-04T14:50:15.005Z,26.80
2023-05-04T14:52:45.800Z,26.80
2023-05-04T14:55:15.108Z,27.50
2023-05-04T14:57:44.440Z,26.50
2023-05-04T15:00:15.147Z,26.10
2023-05-04T15:02:44.393Z,25.30
2023-05-04T15:05:13.170Z,24.00
2023-05-04T15:07:44.353Z,22.90
2023-05-04T15:10:16.055Z,22.60
2023-05-04T15:12:45.253Z,22.20
2023-05-04T15:15:14.623Z,22.20
2023-05-04T15:17:44.226Z,22.10
2023-05-04T15:20:15.815Z,21.10
2023-05-04T15:22:47.851Z,21.20
2023-05-04T15:25:19.505Z,21.10
2023-05-04T15:27:49.034Z,21.10
2023-05-04T15:30:18.535Z,20.90
2023-05-04T15:32:50.315Z,20.10
2023-05-04T15:35:22.674Z,20.30
2023-05-04T15:37:51.984Z,20.20
2023-05-04T15:40:22.836Z,20.20
2023-05-04T15:42:51.968Z,19.90
2023-05-04T15:45:22.513Z,20.30
2023-05-04T15:47:53.191Z,20.30
2023-05-04T15:50:24.694Z,20.00
2023-05-04T15:52:56.567Z,19.90
2023-05-04T15:55:28.334Z,20.00
2023-05-04T15:57:57.702Z,20.00
2023-05-04T16:00:28.152Z,19.80
2023-05-04T16:02:58.186Z,19.60
2023-05-04T16:05:28.022Z,20.00
2023-05-04T16:07:57.356Z,20.10
2023-05-04T16:10:28.670Z,19.40
2023-05-04T16:13:00.463Z,19.40
2023-05-04T16:15:30.906Z,19.20
2023-05-04T16:18:00.234Z,19.00
2023-05-04T16:20:30.768Z,18.80
2023-05-04T16:23:00.452Z,18.90
2023-05-04T16:25:31.352Z,18.70
2023-05-04T16:28:00.823Z,18.60
2023-05-04T16:30:33.299Z,18.30
2023-05-04T16:33:03.246Z,18.30
2023-05-04T16:35:34.239Z,18.20
2023-05-04T16:38:04.405Z,18.20
2023-05-04T16:40:36.367Z,18.10
2023-05-04T16:43:07.962Z,17.90
2023-05-04T16:45:38.700Z,17.90
2023-05-04T16:48:08.420Z,17.70
2023-05-04T16:50:37.908Z,17.90
2023-05-04T16:53:07.628Z,17.70
2023-05-04T16:55:41.126Z,17.70
2023-05-04T16:58:10.830Z,17.70
2023-05-04T17:00:43.733Z,17.50
2023-05-04T17:03:13.167Z,17.40
2023-05-04T17:05:42.742Z,17.20
2023-05-04T17:08:13.210Z,17.30
2023-05-04T17:10:44.630Z,17.10
2023-05-04T17:13:14.165Z,17.10
2023-05-04T17:15:43.935Z,16.90
2023-05-04T17:18:15.733Z,16.70
2023-05-04T17:20:45.038Z,16.60
2023-05-04T17:23:15.905Z,16.50
2023-05-04T17:25:47.107Z,16.30
2023-05-04T17:28:16.887Z,16.20
2023-05-04T17:30:46.168Z,16.00
2023-05-04T17:33:15.085Z,15.90
2023-05-04T17:35:45.139Z,15.70
2023-05-04T17:38:14.524Z,15.50
2023-05-04T17:40:44.791Z,15.30
2023-05-04T17:43:15.605Z,15.10
2023-05-04T17:45:56.151Z,15.00
2023-05-04T17:48:25.879Z,14.90
2023-05-04T17:50:55.606Z,14.80
2023-05-04T17:53:24.820Z,14.70
2023-05-04T17:55:54.525Z,14.60
2023-05-04T17:58:26.451Z,14.60
2023-05-04T18:00:55.460Z,14.50
2023-05-04T18:03:25.641Z,14.40
2023-05-04T18:05:55.051Z,14.30
2023-05-04T18:08:24.613Z,14.30
2023-05-04T18:10:53.531Z,14.30
2023-05-04T18:13:24.577Z,14.30
2023-05-04T18:15:54.639Z,14.30
2023-05-04T18:18:24.958Z,14.20
2023-05-04T18:20:54.148Z,14.20
2023-05-04T18:23:24.771Z,14.10
2023-05-04T18:25:56.761Z,14.00
2023-05-04T18:28:27.884Z,13.90
2023-05-04T18:30:57.694Z,13.80
2023-05-04T18:33:29.786Z,13.70
2023-05-04T18:35:58.602Z,13.70
2023-05-04T18:38:27.808Z,13.60
2023-05-04T18:40:57.434Z,13.50
2023-05-04T18:43:27.838Z,13.40
2023-05-04T18:45:57.046Z,13.20
2023-05-04T18:48:26.135Z,13.00
2023-05-04T18:50:57.542Z,12.90
2023-05-04T18:53:26.820Z,12.80
2023-05-04T18:56:03.323Z,12.60
2023-05-04T18:58:34.556Z,12.50
2023-05-04T19:01:03.936Z,12.40
2023-05-04T19:03:33.409Z,12.30
2023-05-04T19:06:02.546Z,12.30
2023-05-04T19:08:31.560Z,12.30
2023-05-04T19:11:00.794Z,12.20
2023-05-04T19:13:30.021Z,12.20
2023-05-04T19:16:00.640Z,12.10
2023-05-04T19:18:30.067Z,12.10
2023-05-04T19:21:06.842Z,12.00
2023-05-04T19:23:36.289Z,11.90
2023-05-04T19:26:06.302Z,11.80
2023-05-04T19:28:35.635Z,11.60
2023-05-04T19:31:06.565Z,11.50
2023-05-04T19:33:47.206Z,11.40
2023-05-04T19:36:18.798Z,11.40
2023-05-04T19:38:48.260Z,11.30
2023-05-04T19:41:17.647Z,11.30
2023-05-04T19:43:49.692Z,11.20
2023-05-04T19:46:24.677Z,11.20
2023-05-04T19:48:55.913Z,11.20
2023-05-04T19:51:25.150Z,11.10
2023-05-04T19:53:54.768Z,11.00
2023-05-04T19:56:25.235Z,11.00
2023-05-04T19:58:55.008Z,10.90
2023-05-04T20:01:26.126Z,10.90
2023-05-04T20:03:56.086Z,10.90
2023-05-04T20:06:27.086Z,10.80
2023-05-04T20:08:56.371Z,10.80
2023-05-04T20:11:29.598Z,10.70
2023-05-04T20:13:59.054Z,10.70
2023-05-04T20:16:29.568Z,10.60
2023-05-04T20:19:03.670Z,10.50
2023-05-04T20:21:34.574Z,10.50
2023-05-04T20:24:04.386Z,10.50
2023-05-04T20:26:34.194Z,10.40
2023-05-04T20:29:03.771Z,10.40
2023-05-04T20:31:35.958Z,10.30
2023-05-04T20:34:05.862Z,10.30
2023-05-04T20:36:35.321Z,10.20
2023-05-04T20:39:07.203Z,10.10
2023-05-04T20:41:38.663Z,10.00
2023-05-04T20:44:07.617Z,10.00
2023-05-04T20:46:40.864Z,10.00
2023-05-04T20:49:10.446Z,9.90
2023-05-04T20:51:40.655Z,9.80
2023-05-04T20:54:09.540Z,9.70
2023-05-04T20:56:39.333Z,9.70
2023-05-04T20:59:08.488Z,9.00
2023-05-04T21:01:37.454Z,9.50
2023-05-04T21:04:10.869Z,9.40
2023-05-04T21:06:40.021Z,9.40
2023-05-04T21:09:10.299Z,9.40
2023-05-04T21:11:39.760Z,9.30
2023-05-04T21:14:08.656Z,9.20
2023-05-04T21:16:38.191Z,9.10
2023-05-04T21:19:08.726Z,9.10
2023-05-04T21:21:41.326Z,9.00
2023-05-04T21:24:14.354Z,8.90
2023-05-04T21:26:43.929Z,8.80
2023-05-04T21:29:15.133Z,8.80
2023-05-04T21:31:44.038Z,8.80
2023-05-04T21:34:15.142Z,8.70
2023-05-04T21:36:45.487Z,8.70
2023-05-04T21:39:14.112Z,8.70
2023-05-04T21:41:45.787Z,8.70
2023-05-04T21:44:15.271Z,8.60
2023-05-04T21:46:44.060Z,8.50
2023-05-04T21:49:14.426Z,8.40
2023-05-04T21:51:43.672Z,8.30
2023-05-04T21:54:13.021Z,8.30
2023-05-04T21:56:43.335Z,8.00
2023-05-04T21:59:12.862Z,8.10
2023-05-04T22:01:49.940Z,8.10
2023-05-04T22:04:21.189Z,8.10
2023-05-04T22:06:49.977Z,8.10
2023-05-04T22:09:19.329Z,8.00
2023-05-04T22:11:52.395Z,8.00
2023-05-04T22:14:21.513Z,7.90
2023-05-04T22:16:50.757Z,7.80
2023-05-04T22:19:21.316Z,7.70
2023-05-04T22:21:50.468Z,7.60
2023-05-04T22:24:19.002Z,7.60
2023-05-04T22:26:49.599Z,7.50
2023-05-04T22:29:18.641Z,7.60
2023-05-04T22:31:47.348Z,7.50
2023-05-04T22:34:16.832Z,7.40
2023-05-04T22:36:50.107Z,7.40
2023-05-04T22:39:19.192Z,7.50
2023-05-04T22:41:48.161Z,7.50
2023-05-04T22:44:17.691Z,7.40
2023-05-04T22:46:46.756Z,7.40
2023-05-04T22:49:15.933Z,7.40
2023-05-04T22:51:50.311Z,7.40
2023-05-04T22:54:18.902Z,7.30
2023-05-04T22:56:47.607Z,7.20
2023-05-04T22:59:16.986Z,7.10
2023-05-04T23:01:48.040Z,7.00
2023-05-04T23:04:17.842Z,6.90
2023-05-04T23:06:47.695Z,6.80
2023-05-04T23:09:17.838Z,6.80
2023-05-04T23:11:47.143Z,6.70
2023-05-04T23:14:16.297Z,6.70
2023-05-04T23:16:47.055Z,6.60
2023-05-04T23:19:16.145Z,6.60
2023-05-04T23:21:45.058Z,6.50
2023-05-04T23:24:15.791Z,6.50
2023-05-04T23:26:45.720Z,6.40
2023-05-04T23:29:16.392Z,6.30
2023-05-04T23:31:45.181Z,6.30
2023-05-04T23:34:14.206Z,6.30
2023-05-04T23:36:43.201Z,6.30
2023-05-04T23:39:12.430Z,6.30
2023-05-04T23:41:41.319Z,6.30
2023-05-04T23:44:11.296Z,6.30
2023-05-04T23:46:40.806Z,6.20
2023-05-04T23:49:09.446Z,6.10
2023-05-04T23:51:39.776Z,6.00
2023-05-04T23:54:09.486Z,5.90
2023-05-04T23:56:38.226Z,5.80
2023-05-04T23:59:07.236Z,5.70
